createdAt,value
2023-04-11T00:03:34.841Z,6.13
2023-04-11T00:08:37.977Z,6.77
2023-04-11T00:13:42.946Z,7.00
2023-04-11T00:18:45.876Z,6.60
2023-04-11T00:23:48.764Z,6.30
2023-04-11T00:28:53.340Z,6.20
2023-04-11T00:33:56.452Z,6.40
2023-04-11T00:39:01.177Z,6.10
2023-04-11T00:44:06.333Z,6.80
2023-04-11T00:49:09.286Z,6.80
2023-04-11T00:54:12.185Z,6.73
2023-04-11T00:59:17.064Z,6.33
2023-04-11T01:04:21.336Z,6.20
2023-04-11T01:09:26.856Z,6.10
2023-04-11T01:14:31.861Z,6.40
2023-04-11T01:19:35.420Z,6.40
2023-04-11T01:24:39.770Z,6.37
2023-04-11T01:29:43.354Z,6.17
2023-04-11T01:34:49.297Z,5.93
2023-04-11T01:39:53.734Z,6.07
2023-04-11T01:44:57.539Z,6.43
2023-04-11T01:50:00.427Z,6.30
2023-04-11T01:55:05.132Z,5.77
2023-04-11T02:00:10.894Z,7.03
2023-04-11T02:05:22.170Z,5.90
2023-04-11T02:10:26.448Z,5.00
2023-04-11T02:15:29.401Z,6.33
2023-04-11T02:20:33.578Z,5.97
2023-04-11T02:25:39.000Z,5.50
2023-04-11T02:30:42.043Z,5.57
2023-04-11T02:35:45.669Z,4.77
2023-04-11T02:40:49.987Z,5.20
2023-04-11T02:46:02.099Z,5.50
2023-04-11T02:51:09.210Z,5.40
2023-04-11T02:56:19.032Z,4.97
2023-04-11T03:01:25.403Z,4.50
2023-04-11T03:06:30.332Z,5.20
2023-04-11T03:11:37.803Z,4.70
2023-04-11T03:16:41.558Z,5.00
2023-04-11T03:21:44.514Z,4.90
2023-04-11T03:26:49.370Z,5.20
2023-04-11T03:31:54.367Z,5.53
2023-04-11T03:36:57.363Z,5.37
2023-04-11T03:42:02.447Z,5.70
2023-04-11T03:47:06.512Z,5.00
2023-04-11T03:52:17.583Z,7.23
2023-04-11T03:57:26.817Z,7.37
2023-04-11T04:02:30.763Z,6.27
2023-04-11T04:07:35.317Z,6.77
2023-04-11T04:12:49.470Z,5.77
2023-04-11T04:17:56.331Z,5.40
2023-04-11T04:23:18.264Z,4.80
2023-04-11T04:28:31.544Z,4.77
2023-04-11T04:33:37.322Z,4.73
2023-04-11T04:38:47.874Z,5.73
2023-04-11T04:43:54.811Z,5.90
2023-04-11T04:49:06.072Z,5.53
2023-04-11T04:54:10.923Z,5.63
2023-04-11T04:59:16.357Z,5.83
2023-04-11T05:04:24.563Z,5.87
2023-04-11T05:09:31.485Z,6.00
2023-04-11T05:14:47.513Z,6.20
2023-04-11T05:19:50.872Z,6.90
2023-04-11T05:24:56.947Z,5.90
2023-04-11T05:30:01.590Z,5.60
2023-04-11T05:35:07.069Z,6.20
2023-04-11T05:40:18.678Z,6.90
2023-04-11T05:45:23.742Z,6.80
2023-04-11T05:50:27.343Z,7.37
2023-04-11T05:55:30.635Z,7.20
2023-04-11T06:00:35.346Z,8.10
2023-04-11T06:05:39.014Z,6.90
2023-04-11T06:10:41.906Z,7.17
2023-04-11T06:15:46.294Z,6.87
2023-04-11T06:20:49.604Z,7.00
2023-04-11T06:25:52.938Z,6.77
2023-04-11T06:30:57.262Z,6.70
2023-04-11T06:36:00.473Z,6.20
2023-04-11T06:41:03.704Z,6.40
2023-04-11T06:46:09.183Z,6.60
2023-04-11T06:51:12.114Z,6.40
2023-04-11T06:56:15.369Z,7.00
2023-04-11T07:01:20.781Z,6.53
2023-04-11T07:06:24.067Z,6.40
2023-04-11T07:11:26.967Z,5.77
2023-04-11T07:16:31.255Z,5.70
2023-04-11T07:21:34.127Z,4.03
2023-04-11T07:26:38.917Z,3.47
2023-04-11T07:31:44.967Z,2.97
2023-04-11T07:36:49.974Z,3.20
2023-04-11T07:41:52.826Z,3.90
2023-04-11T07:46:57.112Z,4.47
2023-04-11T07:51:59.973Z,4.37
2023-04-11T07:57:02.950Z,4.07
2023-04-11T08:02:08.210Z,3.83
2023-04-11T08:07:11.509Z,4.27
2023-04-11T08:12:14.401Z,3.00
2023-04-11T08:17:27.751Z,2.97
2023-04-11T08:22:33.379Z,3.40
2023-04-11T08:27:36.922Z,2.90
2023-04-11T08:32:42.479Z,2.53
2023-04-11T08:37:45.603Z,3.13
2023-04-11T08:42:48.521Z,3.23
2023-04-11T08:47:53.023Z,2.70
2023-04-11T08:52:56.951Z,3.10
2023-04-11T08:58:02.840Z,2.60
2023-04-11T09:03:09.107Z,2.23
2023-04-11T09:08:13.700Z,2.27
2023-04-11T09:13:22.514Z,2.13
2023-04-11T09:18:38.013Z,2.20
2023-04-11T09:23:41.257Z,2.47
2023-04-11T09:28:45.577Z,2.20
2023-04-11T09:33:55.978Z,2.00
2023-04-11T09:38:59.243Z,2.00
2023-04-11T09:44:02.800Z,2.77
2023-04-11T09:49:07.112Z,2.40
2023-04-11T09:54:12.030Z,2.87
2023-04-11T09:59:16.376Z,2.43
2023-04-11T10:04:22.414Z,2.57
2023-04-11T10:09:27.698Z,2.50
2023-04-11T10:14:51.291Z,2.80
2023-04-11T10:19:57.359Z,2.23
2023-04-11T10:25:19.683Z,2.60
2023-04-11T10:30:54.955Z,2.20
2023-04-11T10:36:02.119Z,2.23
2023-04-11T10:41:21.239Z,2.30
2023-04-11T10:46:26.018Z,2.33
2023-04-11T10:51:31.582Z,1.77
2023-04-11T10:56:55.629Z,1.67
2023-04-11T11:01:59.808Z,1.93
2023-04-11T11:07:05.987Z,1.63
2023-04-11T11:12:10.235Z,1.80
2023-04-11T11:17:14.044Z,2.27
2023-04-11T11:22:19.234Z,1.90
2023-04-11T11:27:23.365Z,1.70
2023-04-11T11:32:28.726Z,1.30
2023-04-11T11:37:33.401Z,1.47
2023-04-11T11:42:37.632Z,1.70
2023-04-11T11:47:43.201Z,1.63
2023-04-11T11:52:48.833Z,1.53
2023-04-11T11:57:51.964Z,1.70
2023-04-11T12:02:56.722Z,2.20
2023-04-11T12:08:02.843Z,1.30
2023-04-11T12:13:13.402Z,1.30
2023-04-11T12:18:16.444Z,1.57
2023-04-11T12:23:21.571Z,1.60
2023-04-11T12:28:24.479Z,2.60
2023-04-11T12:33:27.443Z,1.80
2023-04-11T12:38:31.787Z,2.63
2023-04-11T12:43:34.686Z,2.20
2023-04-11T12:48:37.603Z,2.20
2023-04-11T12:53:41.834Z,1.70
2023-04-11T12:58:44.897Z,1.73
2023-04-11T13:03:47.926Z,1.67
2023-04-11T13:08:52.738Z,1.67
2023-04-11T13:13:55.707Z,1.27
2023-04-11T13:18:58.889Z,2.23
2023-04-11T13:24:03.701Z,2.00
2023-04-11T13:29:06.739Z,1.60
2023-04-11T13:34:10.840Z,2.07
2023-04-11T13:39:15.269Z,1.50
2023-04-11T13:44:18.155Z,1.87
2023-04-11T13:49:21.156Z,2.23
2023-04-11T13:54:26.173Z,2.00
2023-04-11T13:59:29.076Z,1.87
2023-04-11T14:04:32.256Z,2.20
2023-04-11T14:09:36.770Z,2.50
2023-04-11T14:14:39.780Z,2.00
2023-04-11T14:19:42.868Z,2.20
2023-04-11T14:24:47.209Z,2.50
2023-04-11T14:29:50.145Z,3.20
2023-04-11T14:34:53.777Z,2.70
2023-04-11T14:39:58.127Z,2.40
2023-04-11T14:45:01.083Z,2.30
2023-04-11T14:50:03.950Z,2.30
2023-04-11T14:55:09.828Z,2.23
2023-04-11T15:00:18.957Z,1.20
2023-04-11T15:05:23.153Z,1.10
2023-04-11T15:10:27.650Z,1.43
2023-04-11T15:15:30.600Z,2.20
2023-04-11T15:20:33.693Z,1.80
2023-04-11T15:25:38.001Z,1.70
2023-04-11T15:30:48.477Z,1.90
2023-04-11T15:35:51.957Z,1.70
2023-04-11T15:40:58.556Z,2.50
2023-04-11T15:46:03.330Z,1.70
2023-04-11T15:51:09.969Z,2.70
2023-04-11T15:56:14.543Z,1.70
2023-04-11T16:01:22.875Z,2.10
2023-04-11T16:06:25.950Z,2.27
2023-04-11T16:11:30.194Z,2.23
2023-04-11T16:16:33.224Z,2.47
2023-04-11T16:21:36.756Z,1.70
2023-04-11T16:26:41.021Z,1.90
2023-04-11T16:31:44.002Z,2.00
2023-04-11T16:36:46.965Z,2.70
2023-04-11T16:41:51.379Z,3.43
2023-04-11T16:46:55.677Z,3.43
2023-04-11T16:51:58.590Z,3.10
2023-04-11T16:57:02.962Z,4.20
2023-04-11T17:02:06.293Z,3.50
2023-04-11T17:07:10.862Z,4.20
2023-04-11T17:12:15.776Z,3.17
2023-04-11T17:17:20.509Z,2.90
2023-04-11T17:22:23.446Z,2.30
2023-04-11T17:27:27.706Z,2.57
2023-04-11T17:32:31.686Z,5.33
2023-04-11T17:37:35.920Z,17.40
2023-04-11T17:42:40.400Z,5.47
2023-04-11T17:47:43.437Z,4.40
2023-04-11T17:52:47.665Z,4.00
2023-04-11T17:57:53.757Z,4.27
2023-04-11T18:02:58.658Z,3.50
2023-04-11T18:08:03.203Z,3.10
2023-04-11T18:13:07.439Z,3.83
2023-04-11T18:18:11.176Z,3.80
2023-04-11T18:23:14.149Z,3.10
2023-04-11T18:28:18.447Z,3.60
2023-04-11T18:33:21.544Z,2.70
2023-04-11T18:38:24.504Z,3.73
2023-04-11T18:43:28.739Z,3.17
2023-04-11T18:48:31.842Z,2.63
2023-04-11T18:53:36.512Z,2.20
2023-04-11T18:58:45.738Z,2.10
2023-04-11T19:03:49.446Z,2.50
2023-04-11T19:08:52.439Z,2.80
2023-04-11T19:13:59.924Z,2.70
2023-04-11T19:19:04.039Z,2.70
2023-04-11T19:24:08.261Z,3.60
2023-04-11T19:29:12.548Z,2.40
2023-04-11T19:34:15.983Z,2.77
2023-04-11T19:39:19.086Z,2.33
2023-04-11T19:44:23.364Z,2.83
2023-04-11T19:49:26.269Z,2.37
2023-04-11T19:54:30.774Z,3.00
2023-04-11T19:59:35.017Z,3.20
2023-04-11T20:04:38.425Z,3.20
2023-04-11T20:09:41.326Z,4.27
2023-04-11T20:14:45.623Z,3.67
2023-04-11T20:19:48.613Z,2.80
2023-04-11T20:24:51.488Z,2.70
2023-04-11T20:29:56.710Z,2.80
2023-04-11T20:35:01.758Z,2.80
2023-04-11T20:40:07.773Z,3.07
2023-04-11T20:45:15.686Z,2.87
2023-04-11T20:50:19.438Z,3.10
2023-04-11T20:55:22.462Z,2.67
2023-04-11T21:00:27.041Z,2.87
2023-04-11T21:05:30.448Z,2.90
2023-04-11T21:10:33.369Z,2.73
2023-04-11T21:15:37.681Z,2.57
2023-04-11T21:20:40.814Z,2.80
2023-04-11T21:25:43.766Z,2.90
2023-04-11T21:30:47.975Z,3.03
2023-04-11T21:35:54.168Z,2.77
2023-04-11T21:40:57.941Z,3.43
2023-04-11T21:46:02.222Z,3.10
2023-04-11T21:51:05.480Z,3.50
2023-04-11T21:56:09.522Z,3.37
2023-04-11T22:01:15.125Z,2.80
2023-04-11T22:06:19.781Z,2.83
2023-04-11T22:11:23.689Z,2.70
2023-04-11T22:16:31.455Z,2.60
2023-04-11T22:21:34.482Z,2.83
2023-04-11T22:26:42.701Z,2.70
2023-04-11T22:31:49.660Z,2.50
2023-04-11T22:36:52.963Z,2.80
2023-04-11T22:41:56.012Z,2.80
2023-04-11T22:47:06.175Z,2.50
2023-04-11T22:52:10.562Z,2.70
2023-04-11T22:57:13.527Z,2.70
2023-04-11T23:02:17.835Z,2.70
2023-04-11T23:07:20.847Z,2.73
2023-04-11T23:12:23.746Z,2.93
2023-04-11T23:17:28.804Z,2.93
2023-04-11T23:22:32.505Z,2.50
2023-04-11T23:27:36.278Z,2.57
2023-04-11T23:32:41.460Z,3.40
2023-04-11T23:37:44.821Z,3.40
2023-04-11T23:42:48.108Z,4.40
2023-04-11T23:47:52.896Z,3.70
2023-04-11T23:52:55.814Z,3.80
2023-04-11T23:57:58.733Z,3.53
